Weather at Jorhat Airport

Public forecast

Using degrees Celsius for public forecast. Weather courtesy of forecast.io.

Closest aviation weather report (METAR) to Jorhat Airport

Closest report is Dibrugarh Airport, 63.7 nm (118.0 km) NE. Retrieved 2021/01/27 03:30 UTC (3 minutes ago):

VEMN 270330Z 12003KT 3000 HZ FEW100 20/14 Q1017 NOSIG

Aviation forecast (TAF) for Jorhat Airport

Retrieved 2021-01-27 00:30 UTC (3 hours ago):

TAF VEJT 251530Z 2600/2612 VRB02KT 0800 FG FEW030 TEMPO 2601/2602 1000 BR SCT010 FEW030 BECMG 2603/2604 1500 BR FEW025 BECMG 2605/2606 4000 BR BECMG 2607/2608 06005KT 6000 FEW030